Time;durP1;ratioP1;P1;durP2;ratioP2;P2;SDS_P1;SDS_P2;PMS_P1;PMS_P2;Temp;Humidity;BMP_temperature;BMP_pressure;BME280_temperature;BME280_humidity;BME280_pressure;Samples;Min_cycle;Max_cycle;Signal;HPM_P1;HPM_P2
2022/05/23 00:00:35;;;;;;;9.15;5.68;;;;;;;;;;6220837;28;20050;-72
2022/05/23 00:03:37;;;;;;;10.18;6.22;;;;;;;;;;6218113;28;20309;-72
2022/05/23 00:06:39;;;;;;;22.67;7.55;;;;;;;;;;6217652;28;20054;-72
2022/05/23 00:09:41;;;;;;;11.07;7.45;;;;;;;;;;6215572;28;20054;-71
2022/05/23 00:12:43;;;;;;;9.90;6.57;;;;;;;;;;6214987;28;20062;-72
2022/05/23 00:15:46;;;;;;;9.40;6.60;;;;;;;;;;6218881;28;20050;-72
2022/05/23 00:18:49;;;;;;;12.18;6.55;;;;;;;;;;6216238;28;20058;-72
2022/05/23 00:21:51;;;;;;;7.47;4.65;;;;;;;;;;6217322;28;20353;-72
2022/05/23 00:24:52;;;;;;;7.78;4.97;;;;;;;;;;6215305;28;20060;-71
2022/05/23 00:27:54;;;;;;;7.85;4.75;;;;;;;;;;6213795;28;20050;-72
2022/05/23 00:30:57;;;;;;;7.63;4.40;;;;;;;;;;6215580;28;20054;-70
2022/05/23 00:37:17;;;;;;;5.30;4.25;;;;;;;;;;6217221;28;20053;-70
2022/05/23 00:40:36;;;;;;;11.65;4.95;;;;;;;;;;6219299;28;20054;-71
2022/05/23 00:43:36;;;;;;;7.63;4.40;;;;;;;;;;6224591;28;20077;-72
2022/05/23 00:46:51;;;;;;;10.30;4.90;;;;;;;;;;6220125;28;20058;-71
2022/05/23 00:49:53;;;;;;;9.13;4.72;;;;;;;;;;6215699;28;20076;-71
2022/05/23 00:52:56;;;;;;;8.25;4.38;;;;;;;;;;6218521;28;20053;-72
2022/05/23 00:55:58;;;;;;;;;;;;;;;;;;6212972;28;20058;-72
2022/05/23 00:59:02;;;;;;;10.30;4.82;;;;;;;;;;6212240;28;19972;-72
2022/05/23 01:02:08;;;;;;;10.25;4.50;;;;;;;;;;6211332;28;20054;-71
2022/05/23 01:05:10;;;;;;;6.30;4.47;;;;;;;;;;6213447;28;20050;-71
2022/05/23 01:08:15;;;;;;;8.95;4.53;;;;;;;;;;6210894;28;20061;-70
2022/05/23 01:11:16;;;;;;;7.93;4.75;;;;;;;;;;6213205;28;20096;-70
2022/05/23 01:14:18;;;;;;;8.02;4.95;;;;;;;;;;6215958;28;20066;-70
2022/05/23 01:17:22;;;;;;;6.38;4.40;;;;;;;;;;6213293;28;20050;-70
2022/05/23 01:20:24;;;;;;;6.82;4.68;;;;;;;;;;6209820;28;20060;-69
2022/05/23 01:23:36;;;;;;;9.60;3.95;;;;;;;;;;6213142;28;20112;-69
2022/05/23 01:26:39;;;;;;;6.97;4.28;;;;;;;;;;6211510;28;20261;-72
2022/05/23 01:29:44;;;;;;;6.45;4.40;;;;;;;;;;6212194;28;20597;-70
2022/05/23 01:32:45;;;;;;;7.38;4.35;;;;;;;;;;6210839;28;20616;-70
2022/05/23 01:35:47;;;;;;;7.05;4.30;;;;;;;;;;6209782;28;20061;-71
2022/05/23 01:38:49;;;;;;;6.70;3.85;;;;;;;;;;6209800;28;20054;-70
2022/05/23 01:41:52;;;;;;;8.48;3.97;;;;;;;;;;6210205;28;20046;-71
2022/05/23 01:44:53;;;;;;;8.18;3.78;;;;;;;;;;6210479;28;20265;-70
2022/05/23 01:47:55;;;;;;;6.03;3.90;;;;;;;;;;6210923;28;20105;-71
2022/05/23 01:50:57;;;;;;;4.85;3.83;;;;;;;;;;6212864;28;20069;-71
2022/05/23 01:53:58;;;;;;;5.97;4.32;;;;;;;;;;6208737;28;20052;-71
2022/05/23 01:57:02;;;;;;;7.68;4.10;;;;;;;;;;6209463;28;20053;-70
2022/05/23 02:03:22;;;;;;;6.72;3.95;;;;;;;;;;6174431;28;20120;-71
2022/05/23 02:06:24;;;;;;;9.65;4.47;;;;;;;;;;6208420;28;20215;-71
2022/05/23 02:09:27;;;;;;;7.07;4.47;;;;;;;;;;6210425;28;20280;-71
2022/05/23 02:12:30;;;;;;;7.07;4.25;;;;;;;;;;6211781;28;20046;-71
2022/05/23 02:15:32;;;;;;;5.60;4.60;;;;;;;;;;6211294;28;20141;-71
2022/05/23 02:18:34;;;;;;;7.50;4.67;;;;;;;;;;6216306;28;20050;-70
2022/05/23 02:21:36;;;;;;;7.88;4.63;;;;;;;;;;6209548;28;20476;-71
2022/05/23 02:24:38;;;;;;;8.27;4.60;;;;;;;;;;6213287;28;20050;-71
2022/05/23 02:27:41;;;;;;;6.97;4.50;;;;;;;;;;6212641;28;20054;-71
2022/05/23 02:30:43;;;;;;;7.10;4.40;;;;;;;;;;6213820;28;20066;-70
2022/05/23 02:33:44;;;;;;;7.50;4.88;;;;;;;;;;6209781;28;20046;-70
2022/05/23 02:36:47;;;;;;;9.15;4.80;;;;;;;;;;6212412;28;20057;-72
2022/05/23 02:39:49;;;;;;;5.40;4.55;;;;;;;;;;6215275;28;20046;-72
2022/05/23 02:42:52;;;;;;;8.20;5.30;;;;;;;;;;6207431;28;20048;-72
2022/05/23 02:45:54;;;;;;;5.30;4.70;;;;;;;;;;6209173;28;20268;-71
2022/05/23 02:48:55;;;;;;;6.40;4.32;;;;;;;;;;6213081;28;20042;-70
2022/05/23 02:51:57;;;;;;;8.70;4.72;;;;;;;;;;6204589;28;20058;-72
2022/05/23 02:54:59;;;;;;;8.43;5.03;;;;;;;;;;6207602;28;20042;-72
2022/05/23 02:58:02;;;;;;;10.75;5.20;;;;;;;;;;6212201;28;20050;-71
2022/05/23 03:01:03;;;;;;;8.82;5.00;;;;;;;;;;6216978;28;20064;-72
2022/05/23 03:04:04;;;;;;;6.13;4.88;;;;;;;;;;6212736;28;20398;-71
2022/05/23 03:07:06;;;;;;;7.05;4.72;;;;;;;;;;6210288;28;20050;-72
2022/05/23 03:10:08;;;;;;;9.73;5.00;;;;;;;;;;6211620;28;20046;-71
2022/05/23 03:13:12;;;;;;;7.05;4.70;;;;;;;;;;6208042;28;20066;-72
2022/05/23 03:16:14;;;;;;;5.70;4.45;;;;;;;;;;6207281;28;20049;-72
2022/05/23 03:19:16;;;;;;;8.35;4.90;;;;;;;;;;6207567;28;20112;-71
2022/05/23 03:29:00;;;;;;;9.15;4.68;;;;;;;;;;6208222;28;20050;-72
2022/05/23 03:32:02;;;;;;;9.02;4.25;;;;;;;;;;6206813;28;20054;-72
2022/05/23 03:35:04;;;;;;;9.35;4.88;;;;;;;;;;6206539;28;20273;-72
2022/05/23 03:38:06;;;;;;;10.05;5.55;;;;;;;;;;6211265;28;20245;-72
2022/05/23 03:41:09;;;;;;;10.88;5.10;;;;;;;;;;6208372;28;20057;-71
2022/05/23 03:44:12;;;;;;;8.18;5.40;;;;;;;;;;6205388;28;20054;-72
2022/05/23 03:47:14;;;;;;;7.60;4.50;;;;;;;;;;6206602;28;20054;-71
2022/05/23 03:50:15;;;;;;;8.25;4.65;;;;;;;;;;6207143;28;20105;-71
2022/05/23 03:53:17;;;;;;;8.18;4.90;;;;;;;;;;6209387;28;20046;-71
2022/05/23 03:56:19;;;;;;;7.18;4.85;;;;;;;;;;6211248;28;20062;-71
2022/05/23 03:59:21;;;;;;;6.30;5.05;;;;;;;;;;6209745;28;20226;-71
2022/05/23 04:02:23;;;;;;;7.18;5.20;;;;;;;;;;6207804;28;20107;-71
2022/05/23 04:05:25;;;;;;;10.30;4.75;;;;;;;;;;6208871;28;20062;-71
2022/05/23 04:08:27;;;;;;;7.65;5.03;;;;;;;;;;6206676;28;20109;-72
2022/05/23 04:11:28;;;;;;;8.45;4.35;;;;;;;;;;6208834;28;20123;-71
2022/05/23 04:14:31;;;;;;;8.55;4.32;;;;;;;;;;6206583;28;20122;-71
2022/05/23 04:17:33;;;;;;;7.78;4.35;;;;;;;;;;6207696;28;20411;-71
2022/05/23 04:20:35;;;;;;;9.45;4.95;;;;;;;;;;6204493;28;20049;-71
2022/05/23 04:23:36;;;;;;;6.97;4.82;;;;;;;;;;6206138;28;20269;-71
2022/05/23 04:26:38;;;;;;;5.93;4.45;;;;;;;;;;6209546;28;20050;-72
2022/05/23 04:29:41;;;;;;;6.43;3.90;;;;;;;;;;6213872;28;21599;-71
2022/05/23 04:36:02;;;;;;;4.55;3.97;;;;;;;;;;6207434;28;20058;-71
2022/05/23 04:39:04;;;;;;;4.70;4.03;;;;;;;;;;6213344;28;20054;-71
2022/05/23 04:42:06;;;;;;;5.97;4.20;;;;;;;;;;6215955;28;20046;-71
2022/05/23 04:45:10;;;;;;;6.93;4.32;;;;;;;;;;6211038;28;20054;-71
2022/05/23 04:51:31;;;;;;;8.70;4.40;;;;;;;;;;6212570;28;20345;-71
2022/05/23 04:54:32;;;;;;;7.50;3.88;;;;;;;;;;6211582;28;20053;-71
2022/05/23 04:57:34;;;;;;;5.78;4.22;;;;;;;;;;6212204;28;20126;-72
2022/05/23 05:00:39;;;;;;;5.15;3.80;;;;;;;;;;6216593;28;20121;-70
2022/05/23 05:03:40;;;;;;;5.15;3.95;;;;;;;;;;6211213;28;20153;-71
2022/05/23 05:06:43;;;;;;;6.32;3.78;;;;;;;;;;6212946;28;20329;-72
2022/05/23 05:09:44;;;;;;;5.90;3.40;;;;;;;;;;6214637;28;20290;-72
2022/05/23 05:12:46;;;;;;;6.55;4.50;;;;;;;;;;6211389;28;20057;-72
2022/05/23 05:15:49;;;;;;;7.85;4.03;;;;;;;;;;6211631;28;20233;-71
2022/05/23 05:18:51;;;;;;;5.78;3.83;;;;;;;;;;6211828;28;20104;-71
2022/05/23 05:21:52;;;;;;;6.93;3.85;;;;;;;;;;6213262;28;20062;-71
2022/05/23 05:24:54;;;;;;;5.05;3.90;;;;;;;;;;6215316;28;20329;-72
2022/05/23 05:27:56;;;;;;;5.43;3.67;;;;;;;;;;6211504;28;20337;-72
2022/05/23 05:31:02;;;;;;;5.95;2.92;;;;;;;;;;6212329;28;20042;-71
2022/05/23 05:34:08;;;;;;;6.13;3.22;;;;;;;;;;6208211;28;20109;-71
2022/05/23 05:37:13;;;;;;;6.53;3.33;;;;;;;;;;6210187;28;20054;-70
2022/05/23 05:40:17;;;;;;;6.97;3.47;;;;;;;;;;6210827;28;20225;-72
2022/05/23 05:43:22;;;;;;;9.15;3.33;;;;;;;;;;6212983;28;20077;-71
2022/05/23 05:46:27;;;;;;;6.63;3.42;;;;;;;;;;6206219;28;20061;-71
2022/05/23 05:49:31;;;;;;;6.82;3.58;;;;;;;;;;6210952;28;20070;-71
2022/05/23 05:52:32;;;;;;;;;;;;;;;;;;6210143;28;20064;-72
2022/05/23 05:55:34;;;;;;;4.20;3.30;;;;;;;;;;6208064;28;19941;-72
2022/05/23 05:58:36;;;;;;;5.93;3.15;;;;;;;;;;6210544;28;20061;-71
2022/05/23 06:01:40;;;;;;;6.07;2.83;;;;;;;;;;6213299;28;20145;-72
2022/05/23 06:04:42;;;;;;;10.23;3.15;;;;;;;;;;6214337;28;20046;-72
2022/05/23 06:14:22;;;;;;;6.35;2.90;;;;;;;;;;6205910;28;20038;-71
2022/05/23 06:17:25;;;;;;;5.50;3.10;;;;;;;;;;6209152;28;20054;-71
2022/05/23 06:20:27;;;;;;;5.18;3.20;;;;;;;;;;6208850;28;20061;-72
2022/05/23 06:23:29;;;;;;;7.35;3.10;;;;;;;;;;6205628;28;20096;-72
2022/05/23 06:26:30;;;;;;;6.00;2.58;;;;;;;;;;6209322;28;20257;-72
2022/05/23 06:29:32;;;;;;;4.63;2.65;;;;;;;;;;6209277;28;20157;-71
2022/05/23 06:32:35;;;;;;;5.30;2.95;;;;;;;;;;6210290;28;20241;-71
2022/05/23 06:35:37;;;;;;;5.32;2.78;;;;;;;;;;6212672;28;20233;-72
2022/05/23 06:38:41;;;;;;;4.63;2.97;;;;;;;;;;6208282;28;20321;-72
2022/05/23 06:41:43;;;;;;;5.38;2.70;;;;;;;;;;6210504;28;20076;-73
2022/05/23 06:44:44;;;;;;;6.20;3.20;;;;;;;;;;6207323;28;20237;-73
2022/05/23 06:47:48;;;;;;;5.50;3.00;;;;;;;;;;6207405;28;20046;-72
2022/05/23 06:50:50;;;;;;;;;;;;;;;;;;6210755;28;20077;-72
2022/05/23 06:53:52;;;;;;;7.10;2.83;;;;;;;;;;6206483;28;20101;-72
2022/05/23 06:56:54;;;;;;;8.35;2.25;;;;;;;;;;6208643;28;20064;-73
2022/05/23 06:59:56;;;;;;;5.95;2.70;;;;;;;;;;6206743;28;20049;-72
2022/05/23 07:02:59;;;;;;;6.47;3.05;;;;;;;;;;6207483;28;20065;-71
2022/05/23 07:12:44;;;;;;;6.10;3.40;;;;;;;;;;6211934;28;20054;-72
2022/05/23 07:15:48;;;;;;;4.82;3.08;;;;;;;;;;6212686;28;20046;-71
2022/05/23 07:18:51;;;;;;;7.60;3.40;;;;;;;;;;6207632;28;20054;-72
2022/05/23 07:21:54;;;;;;;;;;;;;;;;;;6210630;28;20085;-73
2022/05/23 07:24:56;;;;;;;5.35;2.92;;;;;;;;;;6207893;28;19981;-72
2022/05/23 07:27:58;;;;;;;7.57;3.20;;;;;;;;;;6210455;28;20050;-71
2022/05/23 07:31:00;;;;;;;6.07;3.40;;;;;;;;;;6209086;28;20100;-71
2022/05/23 07:34:03;;;;;;;6.97;3.03;;;;;;;;;;6208596;28;20052;-72
2022/05/23 07:37:04;;;;;;;;;;;;;;;;;;6209023;28;20333;-73
2022/05/23 07:40:07;;;;;;;5.63;3.42;;;;;;;;;;6207375;28;20250;-73
2022/05/23 07:43:09;;;;;;;12.30;3.78;;;;;;;;;;6209353;28;20046;-73
2022/05/23 07:46:13;;;;;;;11.57;3.10;;;;;;;;;;6209874;28;20062;-73
2022/05/23 07:49:16;;;;;;;7.38;3.42;;;;;;;;;;6206980;28;20397;-72
2022/05/23 07:52:17;;;;;;;4.80;3.40;;;;;;;;;;6209398;28;20054;-72
2022/05/23 08:01:57;;;;;;;8.98;3.38;;;;;;;;;;6204298;28;20049;-68
2022/05/23 08:05:00;;;;;;;5.25;3.10;;;;;;;;;;6207864;28;20042;-70
2022/05/23 08:08:01;;;;;;;;;;;;;;;;;;6211049;28;20101;-70
2022/05/23 08:11:08;;;;;;;4.70;3.05;;;;;;;;;;6210650;28;19934;-69
2022/05/23 08:14:10;;;;;;;6.88;2.80;;;;;;;;;;6210293;28;20240;-74
2022/05/23 08:17:11;;;;;;;11.25;3.00;;;;;;;;;;6207070;28;21054;-73
2022/05/23 08:20:14;;;;;;;6.22;3.85;;;;;;;;;;6212174;28;20206;-71
2022/05/23 08:23:16;;;;;;;6.35;3.08;;;;;;;;;;6212844;28;20052;-72
2022/05/23 08:26:18;;;;;;;6.85;3.13;;;;;;;;;;6217150;28;20089;-73
2022/05/23 08:29:19;;;;;;;6.32;4.05;;;;;;;;;;6215734;28;20053;-73
2022/05/23 08:32:21;;;;;;;383.00;253.60;;;;;;;;;;6215462;28;20050;-71
2022/05/23 08:35:26;;;;;;;49.92;26.98;;;;;;;;;;6214316;28;20062;-73
2022/05/23 08:38:27;;;;;;;13.85;6.90;;;;;;;;;;6212206;28;20343;-73
2022/05/23 08:41:31;;;;;;;16.52;11.05;;;;;;;;;;6214302;28;20057;-71
2022/05/23 08:44:43;;;;;;;6.63;3.70;;;;;;;;;;6215841;28;20050;-74
2022/05/23 08:47:50;;;;;;;6.68;2.92;;;;;;;;;;6214499;28;20042;-71
2022/05/23 08:50:59;;;;;;;6.10;3.20;;;;;;;;;;6217929;28;20272;-71
2022/05/23 08:54:08;;;;;;;5.65;3.45;;;;;;;;;;6212864;28;20046;-72
2022/05/23 08:57:19;;;;;;;10.98;3.55;;;;;;;;;;6214319;28;20073;-72
2022/05/23 09:00:23;;;;;;;10.32;6.00;;;;;;;;;;6213546;28;20061;-72
2022/05/23 09:03:30;;;;;;;8.00;4.03;;;;;;;;;;6214236;28;20104;-73
2022/05/23 09:06:37;;;;;;;15.45;8.38;;;;;;;;;;6214233;28;20177;-73
2022/05/23 09:09:39;;;;;;;9.73;3.08;;;;;;;;;;6210785;28;20054;-68
2022/05/23 09:12:41;;;;;;;5.63;2.70;;;;;;;;;;6210794;28;20249;-70
2022/05/23 09:15:43;;;;;;;6.03;2.92;;;;;;;;;;6212552;28;20060;-73
2022/05/23 09:18:48;;;;;;;6.60;3.13;;;;;;;;;;6207126;28;20153;-73
2022/05/23 09:25:11;;;;;;;6.07;3.25;;;;;;;;;;6215615;28;20327;-69
2022/05/23 09:28:20;;;;;;;5.78;2.80;;;;;;;;;;6202246;28;20054;-73
2022/05/23 09:31:31;;;;;;;6.70;3.08;;;;;;;;;;6209415;28;20053;-73
2022/05/23 09:34:35;;;;;;;10.68;3.40;;;;;;;;;;6210518;28;20365;-73
2022/05/23 09:37:42;;;;;;;7.03;2.72;;;;;;;;;;6209213;28;20120;-75
2022/05/23 09:40:43;;;;;;;5.13;3.05;;;;;;;;;;6213243;28;20065;-72
2022/05/23 09:50:37;;;;;;;6.50;3.00;;;;;;;;;;6210331;28;20042;-73
2022/05/23 09:53:52;;;;;;;7.25;2.92;;;;;;;;;;6214432;28;20054;-73
2022/05/23 09:56:55;;;;;;;4.93;3.45;;;;;;;;;;6205896;28;20634;-70
2022/05/23 10:00:00;;;;;;;4.75;2.78;;;;;;;;;;6211320;28;20042;-71
2022/05/23 10:03:05;;;;;;;5.57;2.85;;;;;;;;;;6213437;28;20052;-70
2022/05/23 10:06:10;;;;;;;7.72;2.90;;;;;;;;;;6215471;28;20058;-70
2022/05/23 10:09:24;;;;;;;4.65;2.92;;;;;;;;;;6215785;28;20096;-69
2022/05/23 10:12:26;;;;;;;3.75;2.92;;;;;;;;;;6210024;28;20244;-70
2022/05/23 10:15:29;;;;;;;5.07;3.03;;;;;;;;;;6211238;28;20236;-69
2022/05/23 10:18:33;;;;;;;5.05;2.55;;;;;;;;;;6211207;28;20065;-70
2022/05/23 10:21:36;;;;;;;4.97;2.92;;;;;;;;;;6212910;28;20057;-71
2022/05/23 10:24:45;;;;;;;6.28;3.30;;;;;;;;;;6212504;28;20088;-71
2022/05/23 10:27:51;;;;;;;6.05;2.90;;;;;;;;;;6211678;28;20069;-71
2022/05/23 10:30:59;;;;;;;4.55;2.88;;;;;;;;;;6214789;28;20049;-71
2022/05/23 10:34:02;;;;;;;4.97;2.60;;;;;;;;;;6222050;28;20050;-71
2022/05/23 10:37:07;;;;;;;9.25;2.92;;;;;;;;;;6215327;28;20335;-70
2022/05/23 10:43:30;;;;;;;7.10;2.70;;;;;;;;;;6213619;28;20050;-70
2022/05/23 10:46:35;;;;;;;5.37;3.20;;;;;;;;;;6214471;28;20054;-69
2022/05/23 10:49:43;;;;;;;8.43;3.17;;;;;;;;;;6204112;28;20113;-70
2022/05/23 10:52:53;;;;;;;6.35;2.72;;;;;;;;;;6205721;28;20349;-69
2022/05/23 10:56:01;;;;;;;9.70;3.00;;;;;;;;;;6208132;28;20068;-70
2022/05/23 10:59:08;;;;;;;13.05;3.45;;;;;;;;;;6210151;28;20624;-70
2022/05/23 11:02:19;;;;;;;6.05;2.95;;;;;;;;;;6204704;28;20208;-71
2022/05/23 11:05:24;;;;;;;5.40;3.33;;;;;;;;;;6209196;28;20069;-68
2022/05/23 11:08:35;;;;;;;8.88;3.60;;;;;;;;;;6209863;28;20049;-70
2022/05/23 11:11:54;;;;;;;8.38;3.15;;;;;;;;;;6210954;28;20245;-69
2022/05/23 11:15:10;;;;;;;8.82;3.63;;;;;;;;;;6212485;28;20097;-69
2022/05/23 11:18:20;;;;;;;6.32;3.08;;;;;;;;;;6206814;28;20100;-69
2022/05/23 11:21:26;;;;;;;8.98;3.00;;;;;;;;;;6205601;28;20054;-69
2022/05/23 11:24:35;;;;;;;10.95;2.88;;;;;;;;;;6206973;28;20067;-70
2022/05/23 11:34:32;;;;;;;9.98;3.10;;;;;;;;;;6144272;28;20055;-69
2022/05/23 11:37:48;;;;;;;10.30;3.53;;;;;;;;;;6146047;28;20146;-69
2022/05/23 11:41:07;;;;;;;6.35;3.15;;;;;;;;;;6142642;28;20695;-69
2022/05/23 11:44:49;;;;;;;10.90;3.42;;;;;;;;;;6147234;28;20061;-69
2022/05/23 11:47:54;;;;;;;10.65;7.00;;;;;;;;;;6131728;28;20138;-69
2022/05/23 11:50:58;;;;;;;11.57;5.57;;;;;;;;;;6150333;28;20043;-68
2022/05/23 11:54:06;;;;;;;6.88;3.55;;;;;;;;;;6147838;28;20337;-70
2022/05/23 11:57:31;;;;;;;6.18;3.78;;;;;;;;;;6148824;28;20050;-69
2022/05/23 12:00:37;;;;;;;7.85;3.63;;;;;;;;;;6146230;28;20241;-69
2022/05/23 12:04:18;;;;;;;7.00;3.47;;;;;;;;;;6149445;28;20063;-69
2022/05/23 12:08:06;;;;;;;10.75;3.38;;;;;;;;;;6145332;28;20043;-69
2022/05/23 12:11:21;;;;;;;7.80;3.15;;;;;;;;;;6104739;29;20048;-69
2022/05/23 12:14:25;;;;;;;7.88;3.58;;;;;;;;;;6117219;29;20174;-69
2022/05/23 12:17:29;;;;;;;4.80;3.33;;;;;;;;;;6119875;29;20059;-68
2022/05/23 12:20:33;;;;;;;9.50;3.40;;;;;;;;;;6117488;29;20060;-69
2022/05/23 12:23:38;;;;;;;7.90;3.38;;;;;;;;;;6120369;29;20055;-69
2022/05/23 12:26:40;;;;;;;7.55;3.42;;;;;;;;;;6116152;29;20251;-69
2022/05/23 12:29:42;;;;;;;6.47;2.83;;;;;;;;;;6125567;29;20063;-69
2022/05/23 12:32:44;;;;;;;6.35;3.90;;;;;;;;;;6123257;29;20060;-69
2022/05/23 12:35:49;;;;;;;;;;;;;;;;;;6124200;29;20066;-69
2022/05/23 12:39:15;;;;;;;8.73;3.55;;;;;;;;;;6120937;29;19925;-69
2022/05/23 12:42:36;;;;;;;11.18;3.92;;;;;;;;;;6118150;28;20087;-70
2022/05/23 12:46:04;;;;;;;7.53;3.50;;;;;;;;;;6136661;28;20930;-69
2022/05/23 12:49:28;;;;;;;6.32;3.20;;;;;;;;;;6208813;28;20061;-69
2022/05/23 12:52:43;;;;;;;6.35;3.38;;;;;;;;;;6210879;28;20061;-69
2022/05/23 12:55:56;;;;;;;5.13;3.60;;;;;;;;;;6212642;28;20097;-69
2022/05/23 12:59:23;;;;;;;8.63;3.75;;;;;;;;;;6213731;28;20060;-69
2022/05/23 13:02:30;;;;;;;6.93;3.80;;;;;;;;;;6209829;28;20054;-69
2022/05/23 13:05:34;;;;;;;5.63;3.55;;;;;;;;;;6211558;28;20046;-69
2022/05/23 13:08:46;;;;;;;7.40;3.80;;;;;;;;;;6212529;28;20100;-68
2022/05/23 13:11:51;;;;;;;19.13;13.38;;;;;;;;;;6212627;28;20106;-69
2022/05/23 13:14:54;;;;;;;6.78;4.90;;;;;;;;;;6211487;28;20054;-69
2022/05/23 13:22:05;;;;;;;12.23;9.70;;;;;;;;;;6213916;28;20096;-68
2022/05/23 13:24:53;;;;;;;18.48;9.82;;;;;;;;;;6207399;28;20043;-68
2022/05/23 13:27:58;;;;;;;5.90;3.65;;;;;;;;;;6212953;28;20083;-69
2022/05/23 13:31:04;;;;;;;6.70;3.80;;;;;;;;;;6209606;28;20329;-69
2022/05/23 13:34:08;;;;;;;13.18;5.25;;;;;;;;;;6209432;28;20061;-69
2022/05/23 13:37:12;;;;;;;24.95;17.98;;;;;;;;;;6211900;28;20065;-71
2022/05/23 13:40:18;;;;;;;233.90;167.13;;;;;;;;;;6211258;28;20061;-71
2022/05/23 13:43:22;;;;;;;26.90;18.05;;;;;;;;;;6212964;28;20057;-70
2022/05/23 13:46:27;;;;;;;10.18;5.60;;;;;;;;;;6207345;28;20284;-72
2022/05/23 13:49:32;;;;;;;10.27;4.10;;;;;;;;;;6211275;28;20054;-73
2022/05/23 13:52:36;;;;;;;9.13;3.67;;;;;;;;;;6212193;28;20061;-72
2022/05/23 13:55:43;;;;;;;5.68;3.50;;;;;;;;;;6211990;28;20046;-70
2022/05/23 13:58:47;;;;;;;5.38;4.05;;;;;;;;;;6213115;28;20050;-72
2022/05/23 14:01:52;;;;;;;5.85;3.95;;;;;;;;;;6213329;28;20057;-72
2022/05/23 14:04:54;;;;;;;6.53;3.70;;;;;;;;;;6214564;28;20078;-72
2022/05/23 14:07:56;;;;;;;7.20;3.78;;;;;;;;;;6214314;28;20041;-71
2022/05/23 14:10:59;;;;;;;11.30;3.25;;;;;;;;;;6215402;28;20112;-71
2022/05/23 14:14:17;;;;;;;5.40;3.38;;;;;;;;;;6217326;28;20232;-71
2022/05/23 14:17:24;;;;;;;6.10;3.33;;;;;;;;;;6218456;28;20337;-71
2022/05/23 14:20:33;;;;;;;9.73;3.08;;;;;;;;;;6220180;28;20107;-72
2022/05/23 14:23:36;;;;;;;7.97;2.63;;;;;;;;;;6213560;28;20296;-73
2022/05/23 14:26:39;;;;;;;5.70;2.88;;;;;;;;;;6213494;28;20050;-73
2022/05/23 14:29:40;;;;;;;8.20;3.13;;;;;;;;;;6214804;28;20046;-73
2022/05/23 14:32:43;;;;;;;7.85;2.75;;;;;;;;;;6213318;28;20068;-73
2022/05/23 14:35:51;;;;;;;8.90;2.95;;;;;;;;;;6215251;28;20109;-73
2022/05/23 14:38:54;;;;;;;6.70;2.50;;;;;;;;;;6216297;28;20102;-73
2022/05/23 14:42:03;;;;;;;11.77;2.65;;;;;;;;;;6216759;28;20344;-73
2022/05/23 14:45:12;;;;;;;5.93;2.80;;;;;;;;;;6218378;28;20089;-73
2022/05/23 14:48:17;;;;;;;8.85;2.63;;;;;;;;;;6217812;28;20053;-73
2022/05/23 14:51:26;;;;;;;9.05;2.40;;;;;;;;;;6215956;28;20341;-74
2022/05/23 15:01:17;;;;;;;6.95;2.42;;;;;;;;;;6216527;28;20046;-74
2022/05/23 15:04:25;;;;;;;22.67;2.85;;;;;;;;;;6215421;28;20655;-74
2022/05/23 15:07:27;;;;;;;5.32;2.65;;;;;;;;;;6214359;28;20100;-73
2022/05/23 15:10:30;;;;;;;6.80;2.50;;;;;;;;;;6218169;28;20084;-72
2022/05/23 15:13:35;;;;;;;11.48;3.53;;;;;;;;;;6218503;28;20393;-75
2022/05/23 15:16:37;;;;;;;10.20;2.40;;;;;;;;;;6218432;28;20042;-74
2022/05/23 15:19:39;;;;;;;4.20;2.47;;;;;;;;;;6216729;28;20058;-75
2022/05/23 15:22:41;;;;;;;3.75;1.98;;;;;;;;;;6221273;28;20233;-73
2022/05/23 15:25:42;;;;;;;6.03;2.92;;;;;;;;;;6215330;28;20288;-75
2022/05/23 15:28:46;;;;;;;8.02;2.80;;;;;;;;;;6216476;28;20202;-71
2022/05/23 15:31:51;;;;;;;7.60;2.83;;;;;;;;;;6215865;28;20245;-73
2022/05/23 15:34:53;;;;;;;5.13;2.20;;;;;;;;;;6214232;28;20108;-72
2022/05/23 15:37:54;;;;;;;8.90;2.53;;;;;;;;;;6214394;28;20056;-75
2022/05/23 15:40:56;;;;;;;4.65;2.10;;;;;;;;;;6203836;28;20054;-73
2022/05/23 15:43:59;;;;;;;7.43;2.40;;;;;;;;;;6207778;28;20046;-74
2022/05/23 15:47:00;;;;;;;;;;;;;;;;;;6205909;28;20368;-74
2022/05/23 15:50:03;;;;;;;6.63;1.70;;;;;;;;;;6209638;28;19925;-75
2022/05/23 15:53:06;;;;;;;5.15;1.50;;;;;;;;;;6214200;28;20050;-76
2022/05/23 15:56:10;;;;;;;5.10;2.20;;;;;;;;;;6214937;28;20053;-76
2022/05/23 15:59:14;;;;;;;3.85;1.60;;;;;;;;;;6214632;28;20049;-75
2022/05/23 16:02:16;;;;;;;10.18;1.80;;;;;;;;;;6214396;28;20042;-76
2022/05/23 16:05:18;;;;;;;6.53;1.90;;;;;;;;;;6215277;28;20233;-75
2022/05/23 16:08:21;;;;;;;4.07;1.70;;;;;;;;;;6212742;28;20058;-75
2022/05/23 16:11:26;;;;;;;2.45;1.60;;;;;;;;;;6209987;28;20054;-75
2022/05/23 16:14:32;;;;;;;2.88;1.60;;;;;;;;;;6210559;28;20176;-74
2022/05/23 16:17:34;;;;;;;5.57;1.83;;;;;;;;;;6207941;28;20089;-75
2022/05/23 16:20:36;;;;;;;2.42;1.42;;;;;;;;;;6214100;28;20045;-75
2022/05/23 16:23:38;;;;;;;7.35;1.55;;;;;;;;;;6213970;28;20045;-74
2022/05/23 16:26:40;;;;;;;4.43;1.60;;;;;;;;;;6216705;28;20349;-76
2022/05/23 16:29:43;;;;;;;3.35;1.67;;;;;;;;;;6218536;28;20248;-75
2022/05/23 16:39:24;;;;;;;3.17;1.73;;;;;;;;;;6218850;28;20038;-75
2022/05/23 16:42:26;;;;;;;3.83;1.90;;;;;;;;;;6217658;28;20066;-77
2022/05/23 16:45:29;;;;;;;4.40;1.58;;;;;;;;;;6216906;28;21215;-77
2022/05/23 16:48:31;;;;;;;;;;;;;;;;;;6216946;28;20054;-75
2022/05/23 16:51:32;;;;;;;7.90;1.85;;;;;;;;;;6214095;28;19924;-76
2022/05/23 16:54:34;;;;;;;3.08;1.63;;;;;;;;;;6218654;28;20192;-74
2022/05/23 16:57:36;;;;;;;4.10;1.35;;;;;;;;;;6220780;28;20277;-76
2022/05/23 17:00:39;;;;;;;5.03;1.40;;;;;;;;;;6221323;28;20049;-75
2022/05/23 17:03:40;;;;;;;;;;;;;;;;;;6220021;28;20207;-75
2022/05/23 17:06:42;;;;;;;4.18;1.73;;;;;;;;;;6215262;28;19933;-75
2022/05/23 17:09:43;;;;;;;2.20;1.52;;;;;;;;;;6219974;28;20116;-75
2022/05/23 17:12:46;;;;;;;5.85;1.80;;;;;;;;;;6216377;28;20046;-74
2022/05/23 17:15:53;;;;;;;5.03;1.75;;;;;;;;;;6217330;28;20057;-76
2022/05/23 17:18:54;;;;;;;4.68;2.03;;;;;;;;;;6208941;28;20097;-76
2022/05/23 17:21:56;;;;;;;5.93;1.92;;;;;;;;;;6214982;28;20042;-76
2022/05/23 17:24:59;;;;;;;3.45;1.73;;;;;;;;;;6215896;28;20073;-76
2022/05/23 17:28:01;;;;;;;4.00;1.58;;;;;;;;;;6214825;28;20058;-77
2022/05/23 17:31:04;;;;;;;29.55;19.30;;;;;;;;;;6222355;28;20049;-77
2022/05/23 17:34:05;;;;;;;6.43;4.10;;;;;;;;;;6215900;28;20045;-76
2022/05/23 17:37:07;;;;;;;8.48;4.60;;;;;;;;;;6220242;28;20054;-76
2022/05/23 17:40:10;;;;;;;10.52;5.50;;;;;;;;;;6218055;28;20053;-77
2022/05/23 17:43:12;;;;;;;53.58;31.02;;;;;;;;;;6217282;28;20054;-76
2022/05/23 17:46:15;;;;;;;9.30;5.45;;;;;;;;;;6215932;28;20054;-77
2022/05/23 17:49:16;;;;;;;;;;;;;;;;;;6217870;28;20050;-77
2022/05/23 17:52:18;;;;;;;7.25;3.92;;;;;;;;;;6214404;28;19964;-75
2022/05/23 17:55:21;;;;;;;18.60;12.35;;;;;;;;;;6217996;28;20068;-75
2022/05/23 17:58:24;;;;;;;7.35;4.53;;;;;;;;;;6220103;28;20052;-76
2022/05/23 18:01:27;;;;;;;4.97;2.30;;;;;;;;;;6216974;28;20061;-76
2022/05/23 18:04:29;;;;;;;4.82;1.98;;;;;;;;;;6217585;28;20042;-75
2022/05/23 18:07:32;;;;;;;3.95;1.67;;;;;;;;;;6216785;28;20162;-72
2022/05/23 18:10:34;;;;;;;4.20;1.60;;;;;;;;;;6212385;28;20061;-71
2022/05/23 18:20:12;;;;;;;5.65;2.05;;;;;;;;;;6211999;28;20042;-70
2022/05/23 18:23:15;;;;;;;5.25;1.88;;;;;;;;;;6209860;28;20359;-71
2022/05/23 18:26:17;;;;;;;3.55;1.80;;;;;;;;;;6209288;28;20109;-71
2022/05/23 18:29:20;;;;;;;3.97;1.80;;;;;;;;;;6211249;28;20088;-71
2022/05/23 18:32:23;;;;;;;3.95;1.70;;;;;;;;;;6212932;28;20065;-71
2022/05/23 18:35:26;;;;;;;4.30;1.75;;;;;;;;;;6216225;28;20056;-71
2022/05/23 18:38:28;;;;;;;5.93;1.60;;;;;;;;;;6216485;28;20061;-71
2022/05/23 18:41:30;;;;;;;3.63;1.60;;;;;;;;;;6212792;28;20096;-71
2022/05/23 18:44:32;;;;;;;8.27;1.90;;;;;;;;;;6219711;28;20061;-71
2022/05/23 18:47:35;;;;;;;4.00;2.00;;;;;;;;;;6215240;28;20345;-72
2022/05/23 18:50:36;;;;;;;5.03;2.05;;;;;;;;;;6218450;28;20458;-71
2022/05/23 18:53:38;;;;;;;3.38;1.52;;;;;;;;;;6212936;28;20058;-71
2022/05/23 18:56:39;;;;;;;8.82;3.60;;;;;;;;;;6209778;28;20043;-71
2022/05/23 18:59:41;;;;;;;5.15;2.08;;;;;;;;;;6211237;28;20050;-71
2022/05/23 19:02:44;;;;;;;4.70;2.03;;;;;;;;;;6214298;28;20288;-70
2022/05/23 19:05:46;;;;;;;7.75;2.50;;;;;;;;;;6218960;28;20046;-70
2022/05/23 19:08:48;;;;;;;6.65;2.70;;;;;;;;;;6214042;28;20569;-70
2022/05/23 19:11:50;;;;;;;6.85;2.67;;;;;;;;;;6215117;28;20244;-70
2022/05/23 19:14:52;;;;;;;7.85;2.72;;;;;;;;;;6220066;28;20062;-70
2022/05/23 19:17:55;;;;;;;20.23;13.80;;;;;;;;;;6210424;28;20046;-72
2022/05/23 19:20:57;;;;;;;34.22;23.58;;;;;;;;;;6214249;28;20054;-73
2022/05/23 19:23:59;;;;;;;10.65;2.85;;;;;;;;;;6213325;28;20088;-71
2022/05/23 19:27:01;;;;;;;6.80;2.63;;;;;;;;;;6212668;28;20050;-71
2022/05/23 19:30:04;;;;;;;4.10;2.35;;;;;;;;;;6214599;28;20125;-70
2022/05/23 19:33:07;;;;;;;9.68;2.00;;;;;;;;;;6217461;28;20038;-71
2022/05/23 19:36:09;;;;;;;4.63;1.77;;;;;;;;;;6219971;28;20073;-71
2022/05/23 19:39:12;;;;;;;6.37;2.07;;;;;;;;;;6216184;28;20046;-70
2022/05/23 19:42:15;;;;;;;2.93;2.00;;;;;;;;;;6216667;28;20062;-70
2022/05/23 19:45:17;;;;;;;3.47;2.35;;;;;;;;;;6214090;28;20065;-70
2022/05/23 19:48:23;;;;;;;5.85;2.00;;;;;;;;;;6218238;28;20050;-71